sensor_id;sensor_type;location;lat;lon;timestamp;noise_LAeq;noise_LA_min;noise_LA_max;noise_LA01;noise_LA95
68599;Laerm;18038;50.166;18.908;2023-08-24T20:08:24;43.33;40.50;49.55;;
68599;Laerm;18038;50.166;18.908;2023-08-24T20:09:40;48.55;38.65;58.33;;
68599;Laerm;18038;50.166;18.908;2023-08-24T20:10:46;46.76;38.60;61.25;;
68599;Laerm;18038;50.166;18.908;2023-08-24T20:11:59;45.19;38.23;52.80;;
68599;Laerm;18038;50.166;18.908;2023-08-24T20:13:04;47.21;37.26;54.68;;
68599;Laerm;18038;50.166;18.908;2023-08-24T20:14:10;45.99;37.29;54.43;;
68599;Laerm;18038;50.166;18.908;2023-08-24T20:15:15;42.69;36.82;50.16;;
68599;Laerm;18038;50.166;18.908;2023-08-24T20:16:21;44.99;38.64;52.57;;
68599;Laerm;18038;50.166;18.908;2023-08-24T20:17:28;46.62;37.69;60.40;;
68599;Laerm;18038;50.166;18.908;2023-08-24T20:18:35;48.72;39.24;59.67;;
68599;Laerm;18038;50.166;18.908;2023-08-24T20:19:40;46.23;36.38;55.12;;
68599;Laerm;18038;50.166;18.908;2023-08-24T20:20:47;50.04;38.23;62.04;;
68599;Laerm;18038;50.166;18.908;2023-08-24T20:21:50;47.55;39.20;54.37;;
68599;Laerm;18038;50.166;18.908;2023-08-24T20:22:56;47.44;37.98;58.98;;
68599;Laerm;18038;50.166;18.908;2023-08-24T20:24:02;45.14;37.92;51.13;;
68599;Laerm;18038;50.166;18.908;2023-08-24T20:25:12;47.95;38.47;56.63;;
68599;Laerm;18038;50.166;18.908;2023-08-24T20:26:16;43.14;36.38;52.56;;
68599;Laerm;18038;50.166;18.908;2023-08-24T20:27:26;44.32;37.14;52.30;;
68599;Laerm;18038;50.166;18.908;2023-08-24T20:28:30;45.05;36.97;51.92;;
68599;Laerm;18038;50.166;18.908;2023-08-24T20:29:38;44.06;36.68;52.47;;
68599;Laerm;18038;50.166;18.908;2023-08-24T20:30:42;45.02;38.68;54.64;;
68599;Laerm;18038;50.166;18.908;2023-08-24T20:31:46;46.15;37.12;55.60;;
68599;Laerm;18038;50.166;18.908;2023-08-24T20:32:53;47.16;37.09;55.87;;
68599;Laerm;18038;50.166;18.908;2023-08-24T20:33:56;43.71;37.83;57.08;;
68599;Laerm;18038;50.166;18.908;2023-08-24T20:35:05;51.34;38.10;63.74;;
68599;Laerm;18038;50.166;18.908;2023-08-24T20:36:09;44.52;36.05;55.22;;
68599;Laerm;18038;50.166;18.908;2023-08-24T20:37:16;45.95;37.14;55.12;;
68599;Laerm;18038;50.166;18.908;2023-08-24T20:38:20;45.33;37.21;54.12;;
68599;Laerm;18038;50.166;18.908;2023-08-24T20:39:27;42.58;35.62;52.82;;
68599;Laerm;18038;50.166;18.908;2023-08-24T20:41:39;44.12;35.96;54.88;;
68599;Laerm;18038;50.166;18.908;2023-08-24T20:42:47;45.02;37.25;56.28;;
68599;Laerm;18038;50.166;18.908;2023-08-24T20:43:50;38.30;35.10;47.79;;
68599;Laerm;18038;50.166;18.908;2023-08-24T20:44:56;40.99;35.41;50.50;;
68599;Laerm;18038;50.166;18.908;2023-08-24T20:46:00;40.73;34.62;51.62;;
68599;Laerm;18038;50.166;18.908;2023-08-24T20:47:07;42.57;35.15;55.58;;
68599;Laerm;18038;50.166;18.908;2023-08-24T20:48:12;43.78;35.63;54.06;;
68599;Laerm;18038;50.166;18.908;2023-08-24T20:49:15;38.99;36.11;42.68;;
68599;Laerm;18038;50.166;18.908;2023-08-24T20:50:22;39.23;36.21;44.96;;
68599;Laerm;18038;50.166;18.908;2023-08-24T20:51:25;45.23;36.82;57.13;;
68599;Laerm;18038;50.166;18.908;2023-08-24T20:52:31;44.35;35.86;55.33;;
68599;Laerm;18038;50.166;18.908;2023-08-24T20:53:38;38.89;35.30;45.69;;
68599;Laerm;18038;50.166;18.908;2023-08-24T20:54:44;40.87;35.53;48.51;;
68599;Laerm;18038;50.166;18.908;2023-08-24T20:55:49;46.25;35.46;56.42;;
68599;Laerm;18038;50.166;18.908;2023-08-24T20:56:58;39.42;34.76;49.95;;
68599;Laerm;18038;50.166;18.908;2023-08-24T20:58:03;41.75;35.00;53.96;;
68599;Laerm;18038;50.166;18.908;2023-08-24T20:59:10;44.89;35.56;52.34;;
68599;Laerm;18038;50.166;18.908;2023-08-24T21:00:14;39.62;35.61;49.97;;
68599;Laerm;18038;50.166;18.908;2023-08-24T21:01:22;41.14;35.15;46.81;;
68599;Laerm;18038;50.166;18.908;2023-08-24T21:02:28;41.96;34.24;50.71;;
68599;Laerm;18038;50.166;18.908;2023-08-24T21:03:36;47.17;35.53;56.35;;
68599;Laerm;18038;50.166;18.908;2023-08-24T21:04:41;45.00;36.30;54.76;;
68599;Laerm;18038;50.166;18.908;2023-08-24T21:05:47;44.54;35.18;56.20;;
68599;Laerm;18038;50.166;18.908;2023-08-24T21:06:52;42.91;35.53;54.74;;
68599;Laerm;18038;50.166;18.908;2023-08-24T21:07:58;43.52;35.95;54.56;;
68599;Laerm;18038;50.166;18.908;2023-08-24T21:09:03;41.28;34.74;51.28;;
68599;Laerm;18038;50.166;18.908;2023-08-24T21:10:13;37.22;34.15;42.27;;
68599;Laerm;18038;50.166;18.908;2023-08-24T21:11:17;39.08;35.40;48.48;;
68599;Laerm;18038;50.166;18.908;2023-08-24T21:12:27;45.83;36.57;55.18;;
68599;Laerm;18038;50.166;18.908;2023-08-24T21:13:31;43.12;34.94;54.11;;
68599;Laerm;18038;50.166;18.908;2023-08-24T21:14:38;36.05;34.40;39.36;;
68599;Laerm;18038;50.166;18.908;2023-08-24T21:15:45;37.15;34.69;52.76;;
68599;Laerm;18038;50.166;18.908;2023-08-24T21:16:52;42.52;34.45;52.59;;
68599;Laerm;18038;50.166;18.908;2023-08-24T21:17:56;45.14;34.66;55.35;;
68599;Laerm;18038;50.166;18.908;2023-08-24T21:19:02;39.26;36.03;43.62;;
68599;Laerm;18038;50.166;18.908;2023-08-24T21:20:08;38.37;35.89;44.65;;
68599;Laerm;18038;50.166;18.908;2023-08-24T21:21:20;40.59;35.58;49.26;;
68599;Laerm;18038;50.166;18.908;2023-08-24T21:22:31;36.47;34.40;41.69;;
68599;Laerm;18038;50.166;18.908;2023-08-24T21:23:39;41.75;34.41;52.85;;
68599;Laerm;18038;50.166;18.908;2023-08-24T21:24:43;42.01;34.89;54.59;;
68599;Laerm;18038;50.166;18.908;2023-08-24T21:25:49;37.09;35.29;41.43;;
68599;Laerm;18038;50.166;18.908;2023-08-24T21:26:53;38.07;35.56;43.75;;
68599;Laerm;18038;50.166;18.908;2023-08-24T21:28:04;40.12;36.60;45.72;;
68599;Laerm;18038;50.166;18.908;2023-08-24T21:29:08;48.62;36.03;60.11;;
68599;Laerm;18038;50.166;18.908;2023-08-24T21:30:19;36.75;34.13;44.98;;
68599;Laerm;18038;50.166;18.908;2023-08-24T21:31:23;37.31;34.50;48.10;;
68599;Laerm;18038;50.166;18.908;2023-08-24T21:32:31;43.98;34.44;56.69;;
68599;Laerm;18038;50.166;18.908;2023-08-24T21:33:37;36.41;34.15;43.01;;
68599;Laerm;18038;50.166;18.908;2023-08-24T21:34:43;41.67;35.23;52.85;;
68599;Laerm;18038;50.166;18.908;2023-08-24T21:35:47;40.24;34.38;53.17;;
68599;Laerm;18038;50.166;18.908;2023-08-24T21:36:53;50.44;34.76;66.26;;
68599;Laerm;18038;50.166;18.908;2023-08-24T21:37:57;45.89;35.74;56.43;;
68599;Laerm;18038;50.166;18.908;2023-08-24T21:39:04;39.80;37.01;45.84;;
68599;Laerm;18038;50.166;18.908;2023-08-24T21:40:09;37.65;35.20;41.65;;
68599;Laerm;18038;50.166;18.908;2023-08-24T21:41:26;42.08;34.69;55.16;;
68599;Laerm;18038;50.166;18.908;2023-08-24T21:42:31;44.26;35.27;54.54;;
68599;Laerm;18038;50.166;18.908;2023-08-24T21:43:41;35.92;34.16;41.22;;
68599;Laerm;18038;50.166;18.908;2023-08-24T21:44:44;36.01;34.04;40.92;;
68599;Laerm;18038;50.166;18.908;2023-08-24T21:45:54;45.70;34.44;58.41;;
68599;Laerm;18038;50.166;18.908;2023-08-24T21:46:58;43.69;34.28;54.70;;
68599;Laerm;18038;50.166;18.908;2023-08-24T21:48:06;38.75;35.53;49.89;;
68599;Laerm;18038;50.166;18.908;2023-08-24T21:49:15;42.66;35.99;53.61;;
68599;Laerm;18038;50.166;18.908;2023-08-24T21:50:21;42.18;35.63;54.22;;
68599;Laerm;18038;50.166;18.908;2023-08-24T21:51:28;37.70;33.88;50.64;;
68599;Laerm;18038;50.166;18.908;2023-08-24T21:52:35;39.20;34.79;45.83;;
68599;Laerm;18038;50.166;18.908;2023-08-24T21:53:39;38.31;35.25;44.18;;
68599;Laerm;18038;50.166;18.908;2023-08-24T21:54:46;41.89;35.05;50.06;;
68599;Laerm;18038;50.166;18.908;2023-08-24T21:55:49;37.80;34.35;43.28;;
68599;Laerm;18038;50.166;18.908;2023-08-24T21:56:55;34.89;33.35;38.23;;
68599;Laerm;18038;50.166;18.908;2023-08-24T21:57:59;35.98;34.31;43.66;;
68599;Laerm;18038;50.166;18.908;2023-08-24T21:59:09;41.57;35.94;52.11;;
68599;Laerm;18038;50.166;18.908;2023-08-24T22:00:13;36.62;33.61;43.09;;
68599;Laerm;18038;50.166;18.908;2023-08-24T22:01:33;39.39;33.54;47.40;;
68599;Laerm;18038;50.166;18.908;2023-08-24T22:02:36;43.73;33.02;56.08;;
68599;Laerm;18038;50.166;18.908;2023-08-24T22:03:43;35.49;33.68;41.04;;
68599;Laerm;18038;50.166;18.908;2023-08-24T22:04:47;35.71;34.11;40.36;;
68599;Laerm;18038;50.166;18.908;2023-08-24T22:05:54;39.41;35.27;49.15;;
68599;Laerm;18038;50.166;18.908;2023-08-24T22:06:58;38.98;35.20;47.03;;
68599;Laerm;18038;50.166;18.908;2023-08-24T22:08:05;37.41;34.43;44.11;;
68599;Laerm;18038;50.166;18.908;2023-08-24T22:09:11;39.55;35.12;47.80;;
68599;Laerm;18038;50.166;18.908;2023-08-24T22:10:20;46.87;35.76;61.28;;
68599;Laerm;18038;50.166;18.908;2023-08-24T22:11:24;35.32;33.53;41.67;;
68599;Laerm;18038;50.166;18.908;2023-08-24T22:12:31;36.53;33.97;45.55;;
68599;Laerm;18038;50.166;18.908;2023-08-24T22:13:34;37.65;34.56;46.97;;
68599;Laerm;18038;50.166;18.908;2023-08-24T22:14:43;37.31;34.71;44.38;;
68599;Laerm;18038;50.166;18.908;2023-08-24T22:15:49;44.09;34.17;55.49;;
68599;Laerm;18038;50.166;18.908;2023-08-24T22:17:20;35.85;33.86;45.69;;
68599;Laerm;18038;50.166;18.908;2023-08-24T22:18:24;37.36;33.94;48.05;;
68599;Laerm;18038;50.166;18.908;2023-08-24T22:19:31;40.40;34.12;51.64;;
68599;Laerm;18038;50.166;18.908;2023-08-24T22:20:35;38.02;33.83;45.61;;
68599;Laerm;18038;50.166;18.908;2023-08-24T22:21:42;39.73;33.18;52.56;;
68599;Laerm;18038;50.166;18.908;2023-08-24T22:22:46;33.92;33.10;38.46;;
68599;Laerm;18038;50.166;18.908;2023-08-24T22:23:53;41.25;33.13;53.39;;
68599;Laerm;18038;50.166;18.908;2023-08-24T22:24:57;36.49;34.55;43.10;;
68599;Laerm;18038;50.166;18.908;2023-08-24T22:26:04;39.60;33.46;50.94;;
68599;Laerm;18038;50.166;18.908;2023-08-24T22:27:08;35.57;33.79;45.47;;
68599;Laerm;18038;50.166;18.908;2023-08-24T22:28:15;40.47;35.05;48.41;;
68599;Laerm;18038;50.166;18.908;2023-08-24T22:29:19;39.93;35.53;44.15;;
68599;Laerm;18038;50.166;18.908;2023-08-24T22:30:31;38.84;34.68;45.94;;
68599;Laerm;18038;50.166;18.908;2023-08-24T22:31:49;36.46;33.44;44.87;;
68599;Laerm;18038;50.166;18.908;2023-08-24T22:32:56;39.66;33.58;46.64;;
68599;Laerm;18038;50.166;18.908;2023-08-24T22:34:00;41.24;35.09;52.33;;
68599;Laerm;18038;50.166;18.908;2023-08-24T22:35:28;36.21;34.35;39.32;;
68599;Laerm;18038;50.166;18.908;2023-08-24T22:36:32;35.15;33.52;44.95;;
68599;Laerm;18038;50.166;18.908;2023-08-24T22:37:38;35.46;33.40;41.87;;
68599;Laerm;18038;50.166;18.908;2023-08-24T22:38:45;34.23;33.10;39.54;;
68599;Laerm;18038;50.166;18.908;2023-08-24T22:39:53;37.45;34.16;49.58;;
68599;Laerm;18038;50.166;18.908;2023-08-24T22:40:58;42.52;34.00;54.85;;
68599;Laerm;18038;50.166;18.908;2023-08-24T22:42:07;38.67;34.41;54.33;;
68599;Laerm;18038;50.166;18.908;2023-08-24T22:43:12;38.44;34.76;42.38;;
68599;Laerm;18038;50.166;18.908;2023-08-24T22:44:19;43.83;34.73;56.69;;
68599;Laerm;18038;50.166;18.908;2023-08-24T22:45:39;39.90;33.83;52.15;;
68599;Laerm;18038;50.166;18.908;2023-08-24T22:46:46;37.18;33.74;51.56;;
68599;Laerm;18038;50.166;18.908;2023-08-24T22:47:56;40.54;33.63;52.69;;
68599;Laerm;18038;50.166;18.908;2023-08-24T22:49:05;37.09;33.91;52.55;;
68599;Laerm;18038;50.166;18.908;2023-08-24T22:50:11;37.73;34.90;42.23;;
68599;Laerm;18038;50.166;18.908;2023-08-24T22:51:22;44.87;36.44;51.34;;
68599;Laerm;18038;50.166;18.908;2023-08-24T22:52:25;42.47;33.60;55.20;;
68599;Laerm;18038;50.166;18.908;2023-08-24T22:53:33;41.52;34.30;59.66;;
68599;Laerm;18038;50.166;18.908;2023-08-24T22:54:45;36.08;33.45;47.10;;
68599;Laerm;18038;50.166;18.908;2023-08-24T22:55:52;36.16;33.64;46.67;;
68599;Laerm;18038;50.166;18.908;2023-08-24T22:56:57;44.18;34.14;53.44;;
68599;Laerm;18038;50.166;18.908;2023-08-24T22:58:04;45.02;34.24;55.87;;
68599;Laerm;18038;50.166;18.908;2023-08-24T22:59:08;39.97;34.13;49.55;;
68599;Laerm;18038;50.166;18.908;2023-08-24T23:00:15;36.64;34.20;42.13;;
68599;Laerm;18038;50.166;18.908;2023-08-24T23:01:23;42.28;34.55;53.76;;
68599;Laerm;18038;50.166;18.908;2023-08-24T23:02:32;36.81;34.32;43.20;;
68599;Laerm;18038;50.166;18.908;2023-08-24T23:03:35;38.00;34.67;44.63;;
68599;Laerm;18038;50.166;18.908;2023-08-24T23:04:41;37.44;34.73;47.82;;
68599;Laerm;18038;50.166;18.908;2023-08-24T23:05:52;37.61;34.26;43.65;;
68599;Laerm;18038;50.166;18.908;2023-08-24T23:07:04;35.50;33.49;41.78;;
68599;Laerm;18038;50.166;18.908;2023-08-24T23:08:09;34.56;33.18;44.67;;
68599;Laerm;18038;50.166;18.908;2023-08-24T23:09:16;35.59;33.40;44.40;;
68599;Laerm;18038;50.166;18.908;2023-08-24T23:10:22;34.70;33.66;40.36;;
68599;Laerm;18038;50.166;18.908;2023-08-24T23:11:29;43.56;34.13;56.83;;
68599;Laerm;18038;50.166;18.908;2023-08-24T23:12:35;37.39;34.45;44.62;;
68599;Laerm;18038;50.166;18.908;2023-08-24T23:13:42;36.72;33.87;46.45;;
68599;Laerm;18038;50.166;18.908;2023-08-24T23:14:45;37.01;34.36;46.23;;
68599;Laerm;18038;50.166;18.908;2023-08-24T23:15:52;40.62;34.93;48.98;;
68599;Laerm;18038;50.166;18.908;2023-08-24T23:16:59;38.67;34.42;46.22;;
68599;Laerm;18038;50.166;18.908;2023-08-24T23:18:06;36.42;34.05;48.64;;
68599;Laerm;18038;50.166;18.908;2023-08-24T23:19:11;38.99;34.32;49.28;;
68599;Laerm;18038;50.166;18.908;2023-08-24T23:20:17;39.13;35.97;45.74;;
68599;Laerm;18038;50.166;18.908;2023-08-24T23:21:21;38.11;34.22;51.02;;
68599;Laerm;18038;50.166;18.908;2023-08-24T23:22:27;37.42;33.53;51.57;;
68599;Laerm;18038;50.166;18.908;2023-08-24T23:23:32;40.37;34.33;53.86;;
68599;Laerm;18038;50.166;18.908;2023-08-24T23:24:39;37.61;34.22;46.53;;
68599;Laerm;18038;50.166;18.908;2023-08-24T23:25:53;42.44;34.91;54.38;;
68599;Laerm;18038;50.166;18.908;2023-08-24T23:26:59;39.73;35.99;49.65;;
68599;Laerm;18038;50.166;18.908;2023-08-24T23:28:07;37.51;34.57;43.56;;
68599;Laerm;18038;50.166;18.908;2023-08-24T23:29:13;43.82;33.36;60.00;;
68599;Laerm;18038;50.166;18.908;2023-08-24T23:30:20;44.93;34.28;57.70;;
68599;Laerm;18038;50.166;18.908;2023-08-24T23:31:33;36.65;33.84;45.21;;
68599;Laerm;18038;50.166;18.908;2023-08-24T23:32:43;36.67;34.13;43.40;;
68599;Laerm;18038;50.166;18.908;2023-08-24T23:33:49;38.11;33.66;45.01;;
68599;Laerm;18038;50.166;18.908;2023-08-24T23:34:52;34.84;33.27;39.03;;
68599;Laerm;18038;50.166;18.908;2023-08-24T23:35:57;36.53;33.93;41.28;;
68599;Laerm;18038;50.166;18.908;2023-08-24T23:37:07;41.88;35.21;55.89;;
68599;Laerm;18038;50.166;18.908;2023-08-24T23:38:15;36.62;33.73;41.25;;
68599;Laerm;18038;50.166;18.908;2023-08-24T23:39:23;36.18;33.98;42.60;;
68599;Laerm;18038;50.166;18.908;2023-08-24T23:40:27;34.58;33.15;45.07;;
68599;Laerm;18038;50.166;18.908;2023-08-24T23:41:35;35.82;33.22;40.46;;
68599;Laerm;18038;50.166;18.908;2023-08-24T23:42:40;39.57;34.00;50.76;;
68599;Laerm;18038;50.166;18.908;2023-08-24T23:43:46;34.84;33.03;43.71;;
68599;Laerm;18038;50.166;18.908;2023-08-24T23:44:50;35.33;33.26;41.95;;
68599;Laerm;18038;50.166;18.908;2023-08-24T23:45:57;36.53;33.89;43.71;;
68599;Laerm;18038;50.166;18.908;2023-08-24T23:47:05;42.29;34.05;54.97;;
68599;Laerm;18038;50.166;18.908;2023-08-24T23:48:14;35.75;33.67;39.68;;
68599;Laerm;18038;50.166;18.908;2023-08-24T23:49:17;36.43;33.46;42.33;;
68599;Laerm;18038;50.166;18.908;2023-08-24T23:50:24;35.18;33.27;38.14;;
68599;Laerm;18038;50.166;18.908;2023-08-24T23:51:31;35.93;33.65;40.95;;
68599;Laerm;18038;50.166;18.908;2023-08-24T23:52:42;37.67;33.30;49.12;;
68599;Laerm;18038;50.166;18.908;2023-08-24T23:53:47;34.33;33.38;38.87;;
68599;Laerm;18038;50.166;18.908;2023-08-24T23:54:53;41.61;34.19;52.88;;
68599;Laerm;18038;50.166;18.908;2023-08-24T23:55:57;38.65;35.28;44.04;;
68599;Laerm;18038;50.166;18.908;2023-08-24T23:57:04;38.95;34.96;45.28;;
68599;Laerm;18038;50.166;18.908;2023-08-24T23:58:09;42.17;37.27;47.48;;
68599;Laerm;18038;50.166;18.908;2023-08-24T23:59:37;41.70;37.04;51.44;;
